createdAt,value
2018-09-25T00:00:53.632Z,1.80
2018-09-25T00:03:27.003Z,2.40
2018-09-25T00:06:00.248Z,2.05
2018-09-25T00:08:33.608Z,1.92
2018-09-25T00:11:07.072Z,1.80
2018-09-25T00:13:40.469Z,2.17
2018-09-25T00:16:14.075Z,2.17
2018-09-25T00:18:47.492Z,2.22
2018-09-25T00:21:20.817Z,2.75
2018-09-25T00:23:53.981Z,2.15
2018-09-25T00:26:27.493Z,2.22
2018-09-25T00:29:00.791Z,2.08
2018-09-25T00:31:34.255Z,2.00
2018-09-25T00:34:07.721Z,2.37
2018-09-25T00:36:41.159Z,1.62
2018-09-25T00:39:14.467Z,2.67
2018-09-25T00:41:47.940Z,2.10
2018-09-25T00:44:28.053Z,2.15
2018-09-25T00:47:01.557Z,2.52
2018-09-25T00:49:34.981Z,2.15
2018-09-25T00:52:08.319Z,1.90
2018-09-25T00:54:41.646Z,1.70
2018-09-25T00:57:15.113Z,3.08
2018-09-25T00:59:48.264Z,2.58
2018-09-25T01:02:21.673Z,1.90
2018-09-25T01:04:55.117Z,1.80
2018-09-25T01:07:28.495Z,2.87
2018-09-25T01:10:01.940Z,3.40
2018-09-25T01:12:35.273Z,2.85
2018-09-25T01:15:08.768Z,2.00
2018-09-25T01:17:42.160Z,1.75
2018-09-25T01:20:15.555Z,1.62
2018-09-25T01:22:49.077Z,2.55
2018-09-25T01:25:22.509Z,2.15
2018-09-25T01:27:55.989Z,2.10
2018-09-25T01:30:29.403Z,2.00
2018-09-25T01:33:02.780Z,2.10
2018-09-25T01:35:35.994Z,1.82
2018-09-25T01:38:09.369Z,2.17
2018-09-25T01:40:42.548Z,2.22
2018-09-25T01:43:15.763Z,1.95
2018-09-25T01:45:49.112Z,2.25
2018-09-25T01:48:22.620Z,2.00
2018-09-25T01:50:56.046Z,3.00
2018-09-25T01:53:29.516Z,2.15
2018-09-25T01:56:02.688Z,2.27
2018-09-25T01:58:35.983Z,2.67
2018-09-25T02:01:09.468Z,2.92
2018-09-25T02:03:42.809Z,2.55
2018-09-25T02:06:16.281Z,2.50
2018-09-25T02:08:49.569Z,2.37
2018-09-25T02:11:22.789Z,2.30
2018-09-25T02:13:56.025Z,2.65
2018-09-25T02:16:29.426Z,2.47
2018-09-25T02:19:02.865Z,1.80
2018-09-25T02:21:36.257Z,2.47
2018-09-25T02:24:09.486Z,2.52
2018-09-25T02:26:42.934Z,2.75
2018-09-25T02:29:16.382Z,3.00
2018-09-25T02:31:49.821Z,2.45
2018-09-25T02:34:23.047Z,3.00
2018-09-25T02:36:56.408Z,3.10
2018-09-25T02:39:29.825Z,2.92
2018-09-25T02:42:03.111Z,2.65
2018-09-25T02:44:36.313Z,2.35
2018-09-25T02:47:09.679Z,2.72
2018-09-25T02:49:43.324Z,3.10
2018-09-25T02:52:16.588Z,2.50
2018-09-25T02:54:50.028Z,2.90
2018-09-25T02:57:23.148Z,3.12
2018-09-25T02:59:56.427Z,2.60
2018-09-25T03:02:29.851Z,2.65
2018-09-25T03:05:03.340Z,2.35
2018-09-25T03:07:36.692Z,2.92
2018-09-25T03:10:10.196Z,2.65
2018-09-25T03:12:43.560Z,2.50
2018-09-25T03:15:16.729Z,2.62
2018-09-25T03:17:50.148Z,3.10
2018-09-25T03:20:23.492Z,2.90
2018-09-25T03:22:56.933Z,2.85
2018-09-25T03:25:30.345Z,3.67
2018-09-25T03:28:03.586Z,3.20
2018-09-25T03:30:36.723Z,3.33
2018-09-25T03:33:10.116Z,2.95
2018-09-25T03:35:43.314Z,3.47
2018-09-25T03:38:16.521Z,3.80
2018-09-25T03:40:49.942Z,3.35
2018-09-25T03:43:23.356Z,3.37
2018-09-25T03:45:56.678Z,3.37
2018-09-25T03:48:29.965Z,2.77
2018-09-25T03:51:03.197Z,2.98
2018-09-25T03:53:36.470Z,3.35
2018-09-25T03:56:09.879Z,3.35
2018-09-25T03:58:43.333Z,2.85
2018-09-25T04:01:16.770Z,3.02
2018-09-25T04:03:50.203Z,2.83
2018-09-25T04:06:23.669Z,3.33
2018-09-25T04:08:57.042Z,3.33
2018-09-25T04:11:30.498Z,3.42
2018-09-25T04:14:03.948Z,2.80
2018-09-25T04:16:37.205Z,3.40
2018-09-25T04:19:10.529Z,3.40
2018-09-25T04:21:43.936Z,3.47
2018-09-25T04:24:17.337Z,3.30
2018-09-25T04:26:50.620Z,4.05
2018-09-25T04:29:23.997Z,3.85
2018-09-25T04:31:57.428Z,5.08
2018-09-25T04:34:30.827Z,4.28
2018-09-25T04:37:04.259Z,4.08
2018-09-25T04:39:37.623Z,3.10
2018-09-25T04:42:11.011Z,3.33
2018-09-25T04:44:44.411Z,4.05
2018-09-25T04:47:17.805Z,3.55
2018-09-25T04:49:51.057Z,3.77
2018-09-25T04:52:24.185Z,3.95
2018-09-25T04:54:57.566Z,4.40
2018-09-25T04:57:30.984Z,4.97
2018-09-25T05:00:04.381Z,3.55
2018-09-25T05:02:37.864Z,3.95
2018-09-25T05:05:11.338Z,3.60
2018-09-25T05:07:44.805Z,3.85
2018-09-25T05:10:18.260Z,4.75
2018-09-25T05:12:51.734Z,4.28
2018-09-25T05:15:25.179Z,3.85
2018-09-25T05:17:58.497Z,3.75
2018-09-25T05:20:31.785Z,3.62
2018-09-25T05:23:05.028Z,4.10
2018-09-25T05:25:38.436Z,3.85
2018-09-25T05:28:11.977Z,4.67
2018-09-25T05:30:45.243Z,4.00
2018-09-25T05:33:18.659Z,4.10
2018-09-25T05:35:51.973Z,4.08
2018-09-25T05:38:25.336Z,4.10
2018-09-25T05:40:58.797Z,4.78
2018-09-25T05:43:32.156Z,4.97
2018-09-25T05:46:05.520Z,4.50
2018-09-25T05:48:38.961Z,4.00
2018-09-25T05:51:12.283Z,5.17
2018-09-25T05:53:45.737Z,4.67
2018-09-25T05:56:19.109Z,4.85
2018-09-25T05:58:52.549Z,4.75
2018-09-25T06:01:25.871Z,4.50
2018-09-25T06:03:59.198Z,5.28
2018-09-25T06:06:32.318Z,4.55
2018-09-25T06:09:05.668Z,4.15
2018-09-25T06:11:38.937Z,5.50
2018-09-25T06:14:12.425Z,5.25
2018-09-25T06:16:45.601Z,5.30
2018-09-25T06:19:18.949Z,5.55
2018-09-25T06:21:52.338Z,5.78
2018-09-25T06:24:25.580Z,6.22
2018-09-25T06:26:58.949Z,6.85
2018-09-25T06:29:32.300Z,6.33
2018-09-25T06:32:05.717Z,5.60
2018-09-25T06:34:39.285Z,5.85
2018-09-25T06:37:12.759Z,6.33
2018-09-25T06:39:46.224Z,6.72
2018-09-25T06:42:19.456Z,6.40
2018-09-25T06:44:52.866Z,8.20
2018-09-25T06:47:26.241Z,6.72
2018-09-25T06:49:59.460Z,6.20
2018-09-25T06:52:32.873Z,6.33
2018-09-25T06:55:07.255Z,5.65
2018-09-25T06:57:40.634Z,7.42
2018-09-25T07:00:14.165Z,6.70
2018-09-25T07:02:47.513Z,6.50
2018-09-25T07:05:20.933Z,6.78
2018-09-25T07:07:54.140Z,7.22
2018-09-25T07:10:27.647Z,9.63
2018-09-25T07:13:01.003Z,6.78
2018-09-25T07:15:34.263Z,6.97
2018-09-25T07:18:07.777Z,7.47
2018-09-25T07:20:40.957Z,6.75
2018-09-25T07:23:14.285Z,5.67
2018-09-25T07:25:47.680Z,7.17
2018-09-25T07:28:21.040Z,6.53
2018-09-25T07:30:54.554Z,7.70
2018-09-25T07:33:27.729Z,6.87
2018-09-25T07:36:01.213Z,6.75
2018-09-25T07:38:34.634Z,7.17
2018-09-25T07:41:07.971Z,6.33
2018-09-25T07:43:41.468Z,6.70
2018-09-25T07:46:14.888Z,6.62
2018-09-25T07:48:48.316Z,6.87
2018-09-25T07:51:21.712Z,7.50
2018-09-25T07:53:55.115Z,8.90
2018-09-25T07:56:28.656Z,7.65
2018-09-25T07:59:02.028Z,9.30
2018-09-25T08:01:35.469Z,8.30
2018-09-25T08:04:08.897Z,8.25
2018-09-25T08:06:42.389Z,7.70
2018-09-25T08:09:15.864Z,8.37
2018-09-25T08:11:49.256Z,8.70
2018-09-25T08:14:22.733Z,6.07
2018-09-25T08:16:56.050Z,8.00
2018-09-25T08:19:29.408Z,7.23
2018-09-25T08:22:02.856Z,6.47
2018-09-25T08:24:36.245Z,6.20
2018-09-25T08:27:09.636Z,5.70
2018-09-25T08:29:42.924Z,6.30
2018-09-25T08:32:16.112Z,6.10
2018-09-25T08:34:49.516Z,6.27
2018-09-25T08:37:22.928Z,7.37
2018-09-25T08:39:56.151Z,7.30
2018-09-25T08:42:29.600Z,7.50
2018-09-25T08:45:02.978Z,7.37
2018-09-25T08:47:36.268Z,6.97
2018-09-25T08:50:09.671Z,7.17
2018-09-25T08:52:42.932Z,6.40
2018-09-25T08:55:17.271Z,5.57
2018-09-25T08:57:50.728Z,6.90
2018-09-25T09:00:24.196Z,6.97
2018-09-25T09:02:57.460Z,6.97
2018-09-25T09:05:30.913Z,6.30
2018-09-25T09:08:04.441Z,6.50
2018-09-25T09:10:37.720Z,5.80
2018-09-25T09:13:12.025Z,6.20
2018-09-25T09:15:45.300Z,5.23
2018-09-25T09:18:18.576Z,5.17
2018-09-25T09:20:52.325Z,5.40
2018-09-25T09:23:25.540Z,5.03
2018-09-25T09:25:58.705Z,5.20
2018-09-25T09:28:31.979Z,5.87
2018-09-25T09:31:05.333Z,5.57
2018-09-25T09:33:38.541Z,4.87
2018-09-25T09:36:11.939Z,5.40
2018-09-25T09:38:45.360Z,3.73
2018-09-25T09:41:18.677Z,4.43
2018-09-25T09:43:52.160Z,3.70
2018-09-25T09:46:25.597Z,3.20
2018-09-25T09:48:59.046Z,3.37
2018-09-25T09:51:32.249Z,3.17
2018-09-25T09:54:05.583Z,3.50
2018-09-25T09:56:38.925Z,4.33
2018-09-25T09:59:12.239Z,3.73
2018-09-25T10:01:45.696Z,4.20
2018-09-25T10:04:18.921Z,3.53
2018-09-25T10:06:52.413Z,3.40
2018-09-25T10:09:25.694Z,2.53
2018-09-25T10:11:59.084Z,2.00
2018-09-25T10:14:32.328Z,2.43
2018-09-25T10:17:05.534Z,2.57
2018-09-25T10:19:39.022Z,2.23
2018-09-25T10:22:12.449Z,2.50
2018-09-25T10:24:45.787Z,3.10
2018-09-25T10:27:19.194Z,2.37
2018-09-25T10:29:52.585Z,1.77
2018-09-25T10:32:25.888Z,1.93
2018-09-25T10:34:59.258Z,2.13
2018-09-25T10:37:32.647Z,1.93
2018-09-25T10:40:06.056Z,1.27
2018-09-25T10:42:39.275Z,1.47
2018-09-25T10:45:12.741Z,1.77
2018-09-25T10:47:46.099Z,1.73
2018-09-25T10:50:19.593Z,1.90
2018-09-25T10:52:52.716Z,1.97
2018-09-25T10:55:26.185Z,1.87
2018-09-25T10:57:59.438Z,1.90
2018-09-25T11:00:32.772Z,1.60
2018-09-25T11:03:06.331Z,0.90
2018-09-25T11:05:39.615Z,1.80
2018-09-25T11:08:12.997Z,1.80
2018-09-25T11:10:46.362Z,2.40
2018-09-25T11:13:19.800Z,1.50
2018-09-25T11:15:53.295Z,1.70
2018-09-25T11:18:26.592Z,1.87
2018-09-25T11:20:59.849Z,1.73
2018-09-25T11:23:33.118Z,1.23
2018-09-25T11:26:06.480Z,1.60
2018-09-25T11:28:39.864Z,1.60
2018-09-25T11:31:13.223Z,1.77
2018-09-25T11:33:46.593Z,1.70
2018-09-25T11:36:20.045Z,1.40
2018-09-25T11:38:53.308Z,0.93
2018-09-25T11:41:26.793Z,1.00
2018-09-25T11:44:00.131Z,1.60
2018-09-25T11:46:33.658Z,1.07
2018-09-25T11:49:07.021Z,1.53
2018-09-25T11:51:40.292Z,1.50
2018-09-25T11:54:13.483Z,1.47
2018-09-25T11:56:46.839Z,1.47
2018-09-25T11:59:20.204Z,1.70
2018-09-25T12:01:53.594Z,1.40
2018-09-25T12:04:27.023Z,1.30
2018-09-25T12:07:00.332Z,1.37
2018-09-25T12:09:33.684Z,1.33
2018-09-25T12:12:06.954Z,1.30
2018-09-25T12:14:40.388Z,1.13
2018-09-25T12:17:13.921Z,1.23
2018-09-25T12:19:47.289Z,1.40
2018-09-25T12:22:20.709Z,1.13
2018-09-25T12:24:54.074Z,1.60
2018-09-25T12:27:27.498Z,1.57
2018-09-25T12:30:00.852Z,1.60
2018-09-25T12:32:34.236Z,1.30
2018-09-25T12:35:07.517Z,1.40
2018-09-25T12:37:40.968Z,1.63
2018-09-25T12:40:14.463Z,1.00
2018-09-25T12:42:47.732Z,0.87
2018-09-25T12:45:21.072Z,0.90
2018-09-25T12:47:54.323Z,1.37
2018-09-25T12:50:27.761Z,2.20
2018-09-25T12:53:01.241Z,1.33
2018-09-25T12:55:34.542Z,1.57
2018-09-25T12:58:08.047Z,1.40
2018-09-25T13:00:41.387Z,0.90
2018-09-25T13:03:14.851Z,0.80
2018-09-25T13:05:48.229Z,0.83
2018-09-25T13:08:21.656Z,0.80
2018-09-25T13:10:54.943Z,1.10
2018-09-25T13:13:28.307Z,1.37
2018-09-25T13:16:01.754Z,1.17
2018-09-25T13:18:35.144Z,1.37
2018-09-25T13:21:08.588Z,2.07
2018-09-25T13:23:42.161Z,0.80
2018-09-25T13:26:15.501Z,0.90
2018-09-25T13:28:49.045Z,1.40
2018-09-25T13:31:22.421Z,1.20
2018-09-25T13:33:55.764Z,0.93
2018-09-25T13:36:29.113Z,0.77
2018-09-25T13:39:02.385Z,1.30
2018-09-25T13:41:35.762Z,0.90
2018-09-25T13:44:09.194Z,1.27
2018-09-25T13:46:42.557Z,0.90
2018-09-25T13:49:16.022Z,1.27
2018-09-25T13:51:49.469Z,0.93
2018-09-25T13:54:22.933Z,1.17
2018-09-25T13:56:56.354Z,0.80
2018-09-25T13:59:29.731Z,1.00
2018-09-25T14:02:03.285Z,0.90
2018-09-25T14:04:36.737Z,1.10
2018-09-25T14:07:10.061Z,0.97
2018-09-25T14:09:43.585Z,0.70
2018-09-25T14:12:16.974Z,0.90
2018-09-25T14:14:50.515Z,1.10
2018-09-25T14:17:23.694Z,1.07
2018-09-25T14:19:56.984Z,1.80
2018-09-25T14:22:30.437Z,1.00
2018-09-25T14:25:03.896Z,0.80
2018-09-25T14:27:37.327Z,1.10
2018-09-25T14:30:10.734Z,0.80
2018-09-25T14:32:44.111Z,1.23
2018-09-25T14:35:17.537Z,1.03
2018-09-25T14:37:51.027Z,1.00
2018-09-25T14:40:24.448Z,1.20
2018-09-25T14:42:57.831Z,0.80
2018-09-25T14:45:31.222Z,0.90
2018-09-25T14:48:04.612Z,0.90
2018-09-25T14:50:38.086Z,1.00
2018-09-25T14:53:11.493Z,1.13
2018-09-25T14:55:45.756Z,0.90
2018-09-25T14:58:19.204Z,0.80
2018-09-25T15:00:52.674Z,1.50
2018-09-25T15:03:26.041Z,1.20
2018-09-25T15:05:59.461Z,1.10
2018-09-25T15:08:32.885Z,1.00
2018-09-25T15:11:06.341Z,1.30
2018-09-25T15:13:39.928Z,1.00
2018-09-25T15:16:13.385Z,1.10
2018-09-25T15:18:46.776Z,0.80
2018-09-25T15:21:20.388Z,0.80
2018-09-25T15:23:53.612Z,0.70
2018-09-25T15:26:27.020Z,1.23
2018-09-25T15:29:00.245Z,0.97
2018-09-25T15:31:33.440Z,1.30
2018-09-25T15:34:06.801Z,1.10
2018-09-25T15:36:40.297Z,1.10
2018-09-25T15:39:14.088Z,1.07
2018-09-25T15:41:47.705Z,1.00
2018-09-25T15:44:21.281Z,1.30
2018-09-25T15:46:54.737Z,1.67
2018-09-25T15:49:28.182Z,1.37
2018-09-25T15:52:01.723Z,1.50
2018-09-25T15:54:35.006Z,1.30
2018-09-25T15:57:08.436Z,0.83
2018-09-25T15:59:41.906Z,1.43
2018-09-25T16:02:15.269Z,1.30
2018-09-25T16:04:48.646Z,1.50
2018-09-25T16:07:22.076Z,0.97
2018-09-25T16:09:55.439Z,1.33
2018-09-25T16:12:28.900Z,1.50
2018-09-25T16:15:02.347Z,1.23
2018-09-25T16:17:35.589Z,1.63
2018-09-25T16:20:09.089Z,1.27
2018-09-25T16:22:42.548Z,1.37
2018-09-25T16:25:15.970Z,1.10
2018-09-25T16:27:49.361Z,1.80
2018-09-25T16:30:22.602Z,1.07
2018-09-25T16:32:56.133Z,1.73
2018-09-25T16:35:29.686Z,1.00
2018-09-25T16:38:03.165Z,1.60
2018-09-25T16:40:36.412Z,1.23
2018-09-25T16:43:09.849Z,1.47
2018-09-25T16:45:43.316Z,1.00
2018-09-25T16:48:16.669Z,1.10
2018-09-25T16:50:50.091Z,1.70
2018-09-25T16:53:23.459Z,1.67
2018-09-25T16:55:56.888Z,1.47
2018-09-25T16:58:30.279Z,1.10
2018-09-25T17:01:03.565Z,1.90
2018-09-25T17:03:36.913Z,1.13
2018-09-25T17:06:10.368Z,1.50
2018-09-25T17:08:43.797Z,1.37
2018-09-25T17:11:17.204Z,1.40
2018-09-25T17:13:50.621Z,1.67
2018-09-25T17:16:24.063Z,1.57
2018-09-25T17:18:57.520Z,1.60
2018-09-25T17:21:30.963Z,1.77
2018-09-25T17:24:04.494Z,1.70
2018-09-25T17:26:38.001Z,1.67
2018-09-25T17:29:11.679Z,1.03
2018-09-25T17:31:44.918Z,1.17
2018-09-25T17:34:18.239Z,1.40
2018-09-25T17:36:51.556Z,2.10
2018-09-25T17:39:24.735Z,1.77
2018-09-25T17:41:57.921Z,2.77
2018-09-25T17:44:31.181Z,1.60
2018-09-25T17:47:04.629Z,2.03
2018-09-25T17:49:37.882Z,2.50
2018-09-25T17:52:11.204Z,1.70
2018-09-25T17:54:44.392Z,1.63
2018-09-25T17:57:17.710Z,1.30
2018-09-25T17:59:51.006Z,2.70
2018-09-25T18:02:24.496Z,1.50
2018-09-25T18:04:57.731Z,2.00
2018-09-25T18:07:31.182Z,1.60
2018-09-25T18:10:04.589Z,2.57
2018-09-25T18:12:38.054Z,2.17
2018-09-25T18:15:11.564Z,1.47
2018-09-25T18:17:44.984Z,1.70
2018-09-25T18:20:18.334Z,2.03
2018-09-25T18:22:51.744Z,1.83
2018-09-25T18:25:25.166Z,1.80
2018-09-25T18:27:58.598Z,2.00
2018-09-25T18:30:31.996Z,1.80
2018-09-25T18:33:05.344Z,2.20
2018-09-25T18:35:38.626Z,1.80
2018-09-25T18:38:12.324Z,2.30
2018-09-25T18:40:45.549Z,2.20
2018-09-25T18:43:18.866Z,1.87
2018-09-25T18:45:52.362Z,2.37
2018-09-25T18:48:25.828Z,2.10
2018-09-25T18:50:59.265Z,2.25
2018-09-25T18:53:32.744Z,2.15
2018-09-25T18:56:06.221Z,2.60
2018-09-25T18:58:39.489Z,2.10
2018-09-25T19:01:13.215Z,2.42
2018-09-25T19:03:46.612Z,2.10
2018-09-25T19:06:19.968Z,2.55
2018-09-25T19:08:53.276Z,2.50
2018-09-25T19:11:26.782Z,2.12
2018-09-25T19:14:00.110Z,2.72
2018-09-25T19:16:33.592Z,3.45
2018-09-25T19:19:06.997Z,1.98
2018-09-25T19:21:40.612Z,2.95
2018-09-25T19:24:13.837Z,2.83
2018-09-25T19:26:47.308Z,2.37
2018-09-25T19:29:20.536Z,2.22
2018-09-25T19:31:54.012Z,2.02
2018-09-25T19:34:27.499Z,2.50
2018-09-25T19:37:01.050Z,2.83
2018-09-25T19:39:34.424Z,2.47
2018-09-25T19:42:07.916Z,3.20
2018-09-25T19:44:41.311Z,2.50
2018-09-25T19:47:14.576Z,1.95
2018-09-25T19:49:47.951Z,2.80
2018-09-25T19:52:21.410Z,2.75
2018-09-25T19:54:54.895Z,3.42
2018-09-25T19:57:28.248Z,2.77
2018-09-25T20:00:01.558Z,3.10
2018-09-25T20:02:35.080Z,3.33
2018-09-25T20:05:08.506Z,3.33
2018-09-25T20:07:42.028Z,14.30
2018-09-25T20:10:15.417Z,8.25
2018-09-25T20:12:48.942Z,4.70
2018-09-25T20:15:22.442Z,5.33
2018-09-25T20:17:55.941Z,4.58
2018-09-25T20:20:29.450Z,4.78
2018-09-25T20:23:02.864Z,4.50
2018-09-25T20:25:36.247Z,4.10
2018-09-25T20:28:09.674Z,4.70
2018-09-25T20:30:42.898Z,4.15
2018-09-25T20:33:16.329Z,4.75
2018-09-25T20:35:49.719Z,4.85
2018-09-25T20:38:23.047Z,5.10
2018-09-25T20:40:56.520Z,4.80
2018-09-25T20:43:29.948Z,3.67
2018-09-25T20:46:03.282Z,3.83
2018-09-25T20:48:36.745Z,3.33
2018-09-25T20:51:09.941Z,3.67
2018-09-25T20:53:43.448Z,3.87
2018-09-25T20:56:16.794Z,3.22
2018-09-25T20:58:50.234Z,3.40
2018-09-25T21:01:23.619Z,4.00
2018-09-25T21:03:57.113Z,3.90
2018-09-25T21:06:30.609Z,3.20
2018-09-25T21:09:04.080Z,4.28
2018-09-25T21:11:37.487Z,2.95
2018-09-25T21:14:10.834Z,3.37
2018-09-25T21:16:44.276Z,3.50
2018-09-25T21:19:17.648Z,3.40
2018-09-25T21:21:51.084Z,3.80
2018-09-25T21:24:24.436Z,3.70
2018-09-25T21:26:57.867Z,3.62
2018-09-25T21:29:31.361Z,3.50
2018-09-25T21:32:04.880Z,4.20
2018-09-25T21:34:38.389Z,3.85
2018-09-25T21:37:11.796Z,3.33
2018-09-25T21:39:45.162Z,2.98
2018-09-25T21:42:18.652Z,3.40
2018-09-25T21:44:52.111Z,4.47
2018-09-25T21:47:25.483Z,3.10
2018-09-25T21:49:58.977Z,3.10
2018-09-25T21:52:32.377Z,3.02
2018-09-25T21:55:05.781Z,3.52
2018-09-25T21:57:39.317Z,3.62
2018-09-25T22:00:12.782Z,2.83
2018-09-25T22:02:46.232Z,2.55
2018-09-25T22:05:19.658Z,3.37
2018-09-25T22:07:53.031Z,3.45
2018-09-25T22:10:26.468Z,4.22
2018-09-25T22:12:59.822Z,3.20
2018-09-25T22:15:33.096Z,2.70
2018-09-25T22:18:06.453Z,2.77
2018-09-25T22:20:39.859Z,2.80
2018-09-25T22:23:13.302Z,2.85
2018-09-25T22:25:46.801Z,2.85
2018-09-25T22:28:20.456Z,3.30
2018-09-25T22:30:53.824Z,2.58
2018-09-25T22:33:27.244Z,3.00
2018-09-25T22:36:00.572Z,2.98
2018-09-25T22:38:33.857Z,3.02
2018-09-25T22:41:07.280Z,3.25
2018-09-25T22:43:40.704Z,3.05
2018-09-25T22:46:14.044Z,2.80
2018-09-25T22:48:47.317Z,2.80
2018-09-25T22:51:20.685Z,2.75
2018-09-25T22:53:54.140Z,2.72
2018-09-25T22:56:27.460Z,2.80
2018-09-25T22:59:00.976Z,3.60
2018-09-25T23:01:34.407Z,2.60
2018-09-25T23:04:07.755Z,2.40
2018-09-25T23:06:41.149Z,2.52
2018-09-25T23:09:14.488Z,2.47
2018-09-25T23:11:47.996Z,2.62
2018-09-25T23:14:21.451Z,2.50
2018-09-25T23:16:54.888Z,2.45
2018-09-25T23:19:28.213Z,2.92
2018-09-25T23:22:01.661Z,3.70
2018-09-25T23:24:35.112Z,2.08
2018-09-25T23:27:08.572Z,3.17
2018-09-25T23:29:41.707Z,2.30
2018-09-25T23:32:15.134Z,2.72
2018-09-25T23:34:48.593Z,2.72
2018-09-25T23:37:21.831Z,2.47
2018-09-25T23:39:54.933Z,3.02
2018-09-25T23:43:27.977Z,2.62
2018-09-25T23:46:00.257Z,3.42
2018-09-25T23:48:33.579Z,3.33
2018-09-25T23:51:14.988Z,3.02
2018-09-25T23:53:49.821Z,2.83
2018-09-25T23:56:52.704Z,3.40
